Stilwell, Kansas
Current Conditions -  °F | °C
As of 1:53 AM on Thursday 23 Oct 2014 (Local Time) from KOJC Reporting Station
Broken Clouds Broken Clouds  
Wind Chill: 59°   Ceiling: 12000
Heat Index: 59°   Visibility: 10mi
Dew Point: 52°   Wind: 7mph
Humidity: 78%   Direction: 170°S
Pressure: 30.1"   Gusts: NA
Location:  38.77°N, 94.66°W
Report Text: KOJC 230653Z AUTO 17006KT 10SM SCT048 SCT060 BKN120 15/11 A3010 RMK AO2 SLP186 T01500111
Loading
Personal Weather Stations






























Interactive Weather Map
Tropical Storm Tracking
New forecast layout! Learn more

10-Day Weather Forecast

Advertisements
Track Severe Weather on mobile